Home   Weather   East Charleroi   Past weeks
Flag for USA

Past Weather in East Charleroi, Pennsylvania, USA — Yesterday and Last 2 Weeks

Currently: 65 °F. Clear. (Weather station: Allegheny County Airport, USA). See more current weather

Past Weather in East Charleroi — Graph

°F

East Charleroi Temperature Yesterday

Maximum temperature yesterday: 81 °F (at 12:53 pm)
Minimum temperature yesterday: 64 °F (at 3:53 am)
Average temperature yesterday: 70 °F

High & Low Weather Summary for the Past Weeks

 TemperatureHumidityPressure
High85 °F (May 21, 3:53 pm)97% (May 26, 2:04 am)30.03 "Hg (May 26, 2:04 am)
Low49 °F (May 12, 1:53 am)30% (May 13, 5:53 pm)29.68 "Hg (May 15, 4:53 pm)
Average69 °F69%29.89 "Hg
* Reported May 11 9:53 pm — May 26 9:53 pm, East Charleroi. Weather by CustomWeather, © 2024

Note: Actual official high and low records may vary slightly from our data, if they occured in-between our weather recording intervals... More about our weather records

East Charleroi Weather History for the Previous 24 Hours

Scroll right to see more
 ConditionsComfort  
Time TempWeatherWind HumidityBarometerVisibility
9:53 pm
Sun, May 26
65 °FPassing clouds.10 mph91%29.75 "Hg10 mi
8:53 pm66 °FRain. Fog.9 mph90%29.73 "Hg4 mi
8:29 pm67 °FHeavy rain. Broken clouds.9 mph85%29.76 "Hg2 mi
8:04 pm75 °FThundershowers. Broken clouds.6 mph69%29.74 "Hg2 mi
6:53 pm80 °FSunny.12 mph54%29.72 "Hg10 mi
5:53 pm81 °FSunny.9 mph53%29.75 "Hg10 mi
4:53 pm82 °FPassing clouds.7 mph51%29.78 "Hg10 mi
3:53 pm82 °FSunny.8 mph49%29.80 "Hg10 mi
2:53 pm82 °FPassing clouds.9 mph51%29.83 "Hg10 mi
1:53 pm81 °FScattered clouds.6 mph56%29.87 "Hg10 mi
1:02 pm77 °FPartly sunny.5 mph62%29.90 "Hg10 mi
12:53 pm77 °FPartly sunny.6 mph64%29.90 "Hg10 mi
12:28 pm76 °FPartly sunny.3 mph64%29.92 "Hg10 mi
11:53 am76 °FScattered clouds.6 mph69%29.91 "Hg10 mi
11:43 am75 °FScattered clouds.N/A69%29.93 "Hg10 mi
11:00 am72 °FPartly sunny.5 mph76%29.92 "Hg10 mi
10:18 am69 °FPartly sunny.No wind81%29.93 "Hg5 mi
9:42 am66 °FFog.5 mph90%29.94 "Hg2 mi
8:53 am65 °FFog.No wind94%29.92 "Hg1 mi
8:15 am64 °FFog.No wind97%29.93 "Hg0 mi
7:53 am65 °FFog.No wind94%29.93 "Hg0 mi
6:53 am64 °FFog.No wind97%29.93 "Hg0 mi
5:53 am64 °FFog.No wind97%29.90 "Hg0 mi
5:44 am64 °FFog.No wind97%29.91 "Hg0 mi
4:53 am64 °FFog.No wind94%29.90 "Hg0 mi
4:04 am64 °FFog.3 mph97%29.92 "Hg0 mi
3:29 am65 °FFog.No wind94%29.91 "Hg0 mi
3:12 am65 °FFog.3 mph94%29.91 "Hg1 mi
3:00 am65 °FFog.3 mph94%29.91 "Hg2 mi
2:04 am65 °FFog.3 mph97%29.90 "Hg1 mi
1:16 am66 °FFog.No wind93%29.91 "Hg3 mi
1:08 am66 °FFog.No wind93%29.91 "Hg1 mi
12:53 am66 °FFog.No wind93%29.89 "Hg2 mi
12:40 am66 °FFog.No wind93%29.90 "Hg1 mi
12:31 am66 °FFog.No wind93%29.90 "Hg2 mi
12:12 am66 °FFog.No wind93%29.90 "Hg2 mi
11:53 pm
Sat, May 25
66 °FFog.5 mph93%29.88 "Hg1 mi
11:29 pm66 °FFog.5 mph93%29.89 "Hg1 mi
Weather by CustomWeather, © 2024

See weather overview